createdAt,value
2018-04-02T00:01:06.694Z,94545.53
2018-04-02T00:03:32.701Z,94546.50
2018-04-02T00:05:58.681Z,94550.41
2018-04-02T00:08:24.662Z,94553.95
2018-04-02T00:10:50.636Z,94557.28
2018-04-02T00:13:16.650Z,94558.89
2018-04-02T00:15:42.592Z,94562.02
2018-04-02T00:18:08.573Z,94566.14
2018-04-02T00:20:34.552Z,94572.66
2018-04-02T00:23:00.542Z,94568.50
2018-04-02T00:25:26.519Z,94565.72
2018-04-02T00:27:52.498Z,94566.14
2018-04-02T00:30:18.481Z,94573.63
2018-04-02T00:32:44.492Z,94575.98
2018-04-02T00:35:10.452Z,94573.63
2018-04-02T00:37:36.430Z,94574.41
2018-04-02T00:40:02.412Z,94573.20
2018-04-02T00:42:28.394Z,94578.30
2018-04-02T00:44:54.369Z,94576.92
2018-04-02T00:47:20.376Z,94576.89
2018-04-02T00:49:46.385Z,94578.88
2018-04-02T00:52:12.366Z,94579.88
2018-04-02T00:54:38.350Z,94577.13
2018-04-02T00:57:04.295Z,94573.77
2018-04-02T00:59:30.315Z,94581.42
2018-04-02T01:01:56.269Z,94590.48
2018-04-02T01:04:22.285Z,94592.44
2018-04-02T01:06:48.258Z,94590.25
2018-04-02T01:09:14.232Z,94595.19
2018-04-02T01:11:40.247Z,94596.16
2018-04-02T01:14:06.188Z,94598.72
2018-04-02T01:16:32.193Z,94598.31
2018-04-02T01:18:58.142Z,94598.89
2018-04-02T01:21:24.118Z,94601.27
2018-04-02T01:23:50.104Z,94593.81
2018-04-02T01:26:16.084Z,94595.39
2018-04-02T01:28:42.069Z,94592.80
2018-04-02T01:31:08.068Z,94590.63
2018-04-02T01:33:34.008Z,94602.41
2018-04-02T01:36:00.030Z,94596.91
2018-04-02T01:38:26.007Z,94596.50
2018-04-02T01:40:51.954Z,94597.31
2018-04-02T01:43:17.956Z,94587.67
2018-04-02T01:45:43.966Z,94591.00
2018-04-02T01:48:09.922Z,94593.55
2018-04-02T01:50:35.930Z,94593.75
2018-04-02T01:53:01.877Z,94588.62
2018-04-02T01:55:27.858Z,94596.11
2018-04-02T01:57:53.845Z,94612.62
2018-04-02T02:00:19.862Z,94616.75
2018-04-02T02:02:45.805Z,94621.05
2018-04-02T02:05:11.783Z,94629.53
2018-04-02T02:07:37.772Z,94624.00
2018-04-02T02:10:03.749Z,94630.70
2018-04-02T02:12:29.737Z,94630.51
2018-04-02T02:14:55.717Z,94638.73
2018-04-02T02:17:21.692Z,94634.00
2018-04-02T02:19:47.679Z,94636.55
2018-04-02T02:22:13.662Z,94639.31
2018-04-02T02:24:39.671Z,94639.50
2018-04-02T02:27:05.643Z,94633.00
2018-04-02T02:29:31.622Z,94634.80
2018-04-02T02:31:57.605Z,94640.69
2018-04-02T02:34:23.609Z,94643.44
2018-04-02T02:36:49.581Z,94642.83
2018-04-02T02:39:15.573Z,94642.63
2018-04-02T02:41:41.582Z,94647.94
2018-04-02T02:44:07.567Z,94649.31
2018-04-02T02:46:33.511Z,94640.08
2018-04-02T02:48:59.501Z,94638.44
2018-04-02T02:51:25.505Z,94635.14
2018-04-02T02:53:51.463Z,94642.02
2018-04-02T02:56:17.446Z,94641.25
2018-04-02T02:58:43.460Z,94657.70
2018-04-02T03:01:09.413Z,94665.22
2018-04-02T03:03:35.396Z,94672.10
2018-04-02T03:06:01.370Z,94677.91
2018-04-02T03:08:27.419Z,94682.47
2018-04-02T03:10:53.325Z,94686.27
2018-04-02T03:13:19.309Z,94683.11
2018-04-02T03:15:45.296Z,94688.37
2018-04-02T03:18:11.278Z,94691.50
2018-04-02T03:20:37.261Z,94696.41
2018-04-02T03:23:03.239Z,94704.49
2018-04-02T03:25:29.268Z,94703.31
2018-04-02T03:27:55.238Z,94711.77
2018-04-02T03:30:21.212Z,94708.62
2018-04-02T03:32:47.220Z,94708.79
2018-04-02T03:35:13.201Z,94711.73
2018-04-02T03:37:39.161Z,94726.11
2018-04-02T03:40:05.176Z,94728.42
2018-04-02T03:42:31.116Z,94722.91
2018-04-02T03:44:57.105Z,94735.47
2018-04-02T03:47:23.114Z,94739.87
2018-04-02T03:49:49.100Z,94739.59
2018-04-02T03:52:15.072Z,94740.81
2018-04-02T03:54:41.019Z,94741.61
2018-04-02T03:57:06.998Z,94741.78
2018-04-02T03:59:32.984Z,94753.36
2018-04-02T04:01:58.966Z,94750.44
2018-04-02T04:04:24.936Z,94758.30
2018-04-02T04:06:50.954Z,94762.95
2018-04-02T04:09:16.931Z,94757.48
2018-04-02T04:11:42.867Z,94765.37
2018-04-02T04:14:08.884Z,94764.97
2018-04-02T04:16:34.831Z,94770.91
2018-04-02T04:19:00.860Z,94765.78
2018-04-02T04:21:26.809Z,94766.59
2018-04-02T04:23:52.830Z,94771.19
2018-04-02T04:26:18.775Z,94764.17
2018-04-02T04:28:44.787Z,94774.74
2018-04-02T04:31:10.731Z,94784.17
2018-04-02T04:33:36.728Z,94789.95
2018-04-02T04:36:02.730Z,94795.98
2018-04-02T04:38:28.700Z,94796.20
2018-04-02T04:40:54.727Z,94795.05
2018-04-02T04:43:20.708Z,94801.36
2018-04-02T04:45:46.707Z,94815.09
2018-04-02T04:48:12.776Z,94820.44
2018-04-02T04:50:38.753Z,94821.61
2018-04-02T04:53:04.791Z,94829.05
2018-04-02T04:55:30.916Z,94829.79
2018-04-02T04:57:56.896Z,94835.43
2018-04-02T05:00:23.046Z,94839.16
2018-04-02T05:02:49.040Z,94842.74
2018-04-02T05:05:15.095Z,94843.08
2018-04-02T05:07:41.082Z,94844.45
2018-04-02T05:10:07.117Z,94854.30
2018-04-02T05:12:33.104Z,94853.11
2018-04-02T05:14:59.118Z,94848.79
2018-04-02T05:19:51.057Z,94864.23
2018-04-02T05:22:17.089Z,94868.05
2018-04-02T05:24:43.070Z,94866.03
2018-04-02T05:27:09.120Z,94871.00
2018-04-02T05:29:35.190Z,94879.43
2018-04-02T05:32:01.164Z,94885.55
2018-04-02T05:34:27.302Z,94898.20
2018-04-02T05:36:53.283Z,94908.64
2018-04-02T05:39:19.257Z,94914.44
2018-04-02T05:41:45.398Z,94927.39
2018-04-02T05:44:11.408Z,94939.41
2018-04-02T05:46:39.319Z,94933.95
2018-04-02T05:49:03.333Z,94932.83
2018-04-02T05:51:29.365Z,94951.61
2018-04-02T05:53:55.389Z,94936.97
2018-04-02T05:56:21.584Z,94939.59
2018-04-02T05:58:47.607Z,94937.09
2018-04-02T06:01:13.566Z,94950.77
2018-04-02T06:03:39.541Z,94940.73
2018-04-02T06:06:05.566Z,94942.57
2018-04-02T06:08:31.634Z,94947.55
2018-04-02T06:10:57.597Z,94957.98
2018-04-02T06:13:23.546Z,94954.58
2018-04-02T06:15:49.624Z,94951.91
2018-04-02T06:18:15.656Z,94957.50
2018-04-02T06:20:41.637Z,94967.34
2018-04-02T06:23:07.613Z,94965.16
2018-04-02T06:25:33.574Z,94970.75
2018-04-02T06:27:59.556Z,94971.02
2018-04-02T06:30:25.545Z,94979.39
2018-04-02T06:32:51.524Z,94985.15
2018-04-02T06:35:17.537Z,94989.11
2018-04-02T06:37:43.549Z,94988.19
2018-04-02T06:40:09.563Z,95000.89
2018-04-02T06:42:35.780Z,95000.97
2018-04-02T06:45:01.742Z,95002.83
2018-04-02T06:47:27.755Z,95016.15
2018-04-02T06:49:53.709Z,95009.67
2018-04-02T06:52:19.754Z,95023.08
2018-04-02T06:54:45.704Z,95034.98
2018-04-02T06:57:11.747Z,95028.41
2018-04-02T06:59:37.731Z,95024.81
2018-04-02T07:02:03.700Z,95028.05
2018-04-02T07:04:29.781Z,95045.45
2018-04-02T07:06:55.706Z,95057.72
2018-04-02T07:09:21.714Z,95056.66
2018-04-02T07:11:47.669Z,95065.98
2018-04-02T07:14:13.668Z,95067.48
2018-04-02T07:16:39.686Z,95072.02
2018-04-02T07:19:05.657Z,95083.59
2018-04-02T07:21:31.631Z,95087.08
2018-04-02T07:23:57.614Z,95075.38
2018-04-02T07:26:23.601Z,95085.09
2018-04-02T07:28:49.610Z,95097.26
2018-04-02T07:31:15.633Z,95098.42
2018-04-02T07:33:41.576Z,95095.72
2018-04-02T07:36:07.630Z,95103.21
2018-04-02T07:38:33.588Z,95103.88
2018-04-02T07:40:59.606Z,95102.78
2018-04-02T07:43:25.576Z,95092.73
2018-04-02T07:45:51.570Z,95093.45
2018-04-02T07:48:17.549Z,95084.03
2018-04-02T07:50:43.545Z,95089.33
2018-04-02T07:53:09.553Z,95092.28
2018-04-02T07:55:35.508Z,95098.08
2018-04-02T07:58:01.486Z,95085.94
2018-04-02T08:00:27.507Z,95086.42
2018-04-02T08:02:53.542Z,95091.92
2018-04-02T08:05:19.476Z,95089.94
2018-04-02T08:07:45.452Z,95086.91
2018-04-02T08:10:11.472Z,95089.98
2018-04-02T08:12:37.461Z,95080.92
2018-04-02T08:15:03.472Z,95077.15
2018-04-02T08:17:29.473Z,95084.84
2018-04-02T08:19:55.451Z,95098.77
2018-04-02T08:22:21.438Z,95098.38
2018-04-02T08:24:47.446Z,95098.77
2018-04-02T08:27:13.393Z,95098.86
2018-04-02T08:29:39.380Z,95097.44
2018-04-02T08:32:05.368Z,95099.58
2018-04-02T08:34:31.340Z,95093.10
2018-04-02T08:36:57.321Z,95101.25
2018-04-02T08:39:23.334Z,95099.35
2018-04-02T08:41:49.390Z,95097.69
2018-04-02T08:44:15.376Z,95103.03
2018-04-02T08:46:41.349Z,95108.37
2018-04-02T08:49:07.342Z,95117.38
2018-04-02T08:51:33.357Z,95113.31
2018-04-02T08:53:59.349Z,95119.95
2018-04-02T08:56:25.343Z,95109.25
2018-04-02T08:58:51.334Z,95111.97
2018-04-02T09:01:17.356Z,95108.41
2018-04-02T09:03:43.337Z,95114.06
2018-04-02T09:06:09.318Z,95115.60
2018-04-02T09:08:35.343Z,95109.84
2018-04-02T09:11:01.326Z,95102.16
2018-04-02T09:13:27.317Z,95104.91
2018-04-02T09:15:53.310Z,95108.87
2018-04-02T09:18:19.297Z,95114.70
2018-04-02T09:20:45.276Z,95108.02
2018-04-02T09:23:11.257Z,95110.37
2018-04-02T09:25:37.248Z,95112.50
2018-04-02T09:28:03.237Z,95112.10
2018-04-02T09:30:29.265Z,95107.20
2018-04-02T09:32:55.238Z,95111.09
2018-04-02T09:35:21.220Z,95107.73
2018-04-02T09:37:47.272Z,95116.75
2018-04-02T09:40:13.215Z,95107.16
2018-04-02T09:42:39.202Z,95107.00
2018-04-02T09:45:05.230Z,95103.65
2018-04-02T09:47:31.313Z,95094.82
2018-04-02T09:49:57.276Z,95090.33
2018-04-02T09:52:23.331Z,95100.20
2018-04-02T09:54:49.272Z,95102.95
2018-04-02T09:57:15.286Z,95094.30
2018-04-02T09:59:41.276Z,95113.00
2018-04-02T10:02:07.249Z,95118.62
2018-04-02T10:04:33.379Z,95104.81
2018-04-02T10:06:59.294Z,95115.78
2018-04-02T10:09:25.285Z,95113.23
2018-04-02T10:11:51.273Z,95104.20
2018-04-02T10:14:17.254Z,95119.51
2018-04-02T10:16:43.239Z,95112.22
2018-04-02T10:19:09.262Z,95109.06
2018-04-02T10:21:35.243Z,95110.63
2018-04-02T10:24:01.402Z,95103.52
2018-04-02T10:26:27.236Z,95110.59
2018-04-02T10:28:53.218Z,95116.31
2018-04-02T10:31:19.197Z,95120.84
2018-04-02T10:33:45.182Z,95109.02
2018-04-02T10:36:11.158Z,95109.66
2018-04-02T10:38:37.216Z,95110.63
2018-04-02T10:41:03.158Z,95108.09
2018-04-02T10:43:29.171Z,95104.25
2018-04-02T10:45:55.115Z,95114.14
2018-04-02T10:48:21.181Z,95117.91
2018-04-02T10:50:47.165Z,95101.98
2018-04-02T10:53:13.144Z,95102.77
2018-04-02T10:55:39.127Z,95114.55
2018-04-02T10:58:05.134Z,95108.02
2018-04-02T11:00:31.152Z,95116.73
2018-04-02T11:02:57.124Z,95117.86
2018-04-02T11:05:23.186Z,95109.60
2018-04-02T11:07:49.168Z,95121.99
2018-04-02T11:10:15.194Z,95114.70
2018-04-02T11:12:41.205Z,95117.13
2018-04-02T11:15:07.196Z,95116.84
2018-04-02T11:17:33.139Z,95112.91
2018-04-02T11:19:59.140Z,95118.58
2018-04-02T11:22:25.126Z,95118.13
2018-04-02T11:24:51.104Z,95114.17
2018-04-02T11:27:17.153Z,95111.05
2018-04-02T11:29:43.193Z,95102.88
2018-04-02T11:32:09.161Z,95090.98
2018-04-02T11:34:35.162Z,95097.70
2018-04-02T11:37:01.155Z,95086.02
2018-04-02T11:39:27.100Z,95083.67
2018-04-02T11:41:53.088Z,95073.34
2018-04-02T11:44:19.119Z,95078.29
2018-04-02T11:46:45.077Z,95086.79
2018-04-02T11:49:11.101Z,95067.52
2018-04-02T11:51:37.085Z,95079.45
2018-04-02T11:54:03.096Z,95074.39
2018-04-02T11:56:29.077Z,95075.58
2018-04-02T11:58:55.045Z,95071.48
2018-04-02T12:01:21.034Z,95062.66
2018-04-02T12:03:47.020Z,95069.02
2018-04-02T12:06:12.998Z,95070.80
2018-04-02T12:08:39.014Z,95061.94
2018-04-02T12:11:04.972Z,95069.86
2018-04-02T12:13:30.953Z,95069.42
2018-04-02T12:15:56.998Z,95071.73
2018-04-02T12:18:22.927Z,95067.67
2018-04-02T12:20:49.048Z,95068.86
2018-04-02T12:23:14.997Z,95067.52
2018-04-02T12:25:41.003Z,95067.84
2018-04-02T12:28:06.953Z,95070.23
2018-04-02T12:30:32.928Z,95069.86
2018-04-02T12:32:58.920Z,95074.81
2018-04-02T12:35:24.902Z,95066.51
2018-04-02T12:37:50.881Z,95071.17
2018-04-02T12:40:16.919Z,95067.52
2018-04-02T12:42:42.888Z,95066.14
2018-04-02T12:45:08.865Z,95060.23
2018-04-02T12:47:34.844Z,95067.40
2018-04-02T12:50:00.821Z,95061.60
2018-04-02T12:52:26.804Z,95061.94
2018-04-02T12:54:52.823Z,95061.66
2018-04-02T12:57:18.769Z,95054.07
2018-04-02T12:59:44.754Z,95056.06
2018-04-02T13:02:10.732Z,95058.41
2018-04-02T13:04:36.796Z,95056.09
2018-04-02T13:07:02.726Z,95055.91
2018-04-02T13:09:28.720Z,95051.69
2018-04-02T13:11:54.671Z,95060.88
2018-04-02T13:14:20.648Z,95060.84
2018-04-02T13:16:46.632Z,95049.70
2018-04-02T13:19:12.690Z,95057.11
2018-04-02T13:21:38.660Z,95046.45
2018-04-02T13:24:04.641Z,95050.06
2018-04-02T13:26:30.606Z,95046.82
2018-04-02T13:28:56.592Z,95051.03
2018-04-02T13:31:22.623Z,95046.21
2018-04-02T13:33:48.764Z,95043.17
2018-04-02T13:36:14.791Z,95042.27
2018-04-02T13:38:41.025Z,95047.75
2018-04-02T13:41:07.064Z,95045.20
2018-04-02T13:43:33.069Z,95043.59
2018-04-02T13:45:59.044Z,95044.14
2018-04-02T13:48:25.076Z,95054.92
2018-04-02T13:50:51.013Z,95056.46
2018-04-02T13:53:17.076Z,95054.68
2018-04-02T13:55:43.130Z,95060.92
2018-04-02T13:58:09.091Z,95057.76
2018-04-02T14:00:35.114Z,95060.11
2018-04-02T14:03:01.147Z,95062.06
2018-04-02T14:05:27.117Z,95063.47
2018-04-02T14:07:53.135Z,95065.34
2018-04-02T14:10:19.085Z,95062.58
2018-04-02T14:12:45.070Z,95072.67
2018-04-02T14:15:11.067Z,95072.35
2018-04-02T14:17:37.075Z,95069.14
2018-04-02T14:20:03.110Z,95070.77
2018-04-02T14:22:29.064Z,95066.84
2018-04-02T14:24:55.047Z,95070.03
2018-04-02T14:27:21.107Z,95071.09
2018-04-02T14:29:47.104Z,95067.41
2018-04-02T14:32:13.070Z,95067.61
2018-04-02T14:34:39.051Z,95065.86
2018-04-02T14:37:05.061Z,95066.67
2018-04-02T14:39:31.014Z,95079.31
2018-04-02T14:41:57.013Z,95065.95
2018-04-02T14:44:23.025Z,95064.81
2018-04-02T14:46:49.010Z,95077.29
2018-04-02T14:49:14.988Z,95076.84
2018-04-02T14:51:40.987Z,95070.08
2018-04-02T14:54:07.013Z,95081.91
2018-04-02T14:56:33.006Z,95073.16
2018-04-02T14:58:59.657Z,95072.67
2018-04-02T15:01:25.086Z,95070.72
2018-04-02T15:03:51.048Z,95072.02
2018-04-02T15:06:17.177Z,95070.28
2018-04-02T15:08:43.241Z,95077.48
2018-04-02T15:11:09.218Z,95078.25
2018-04-02T15:13:35.230Z,95077.84
2018-04-02T15:16:01.277Z,95075.63
2018-04-02T15:18:27.518Z,95071.49
2018-04-02T15:20:53.536Z,95080.60
2018-04-02T15:23:19.549Z,95074.77
2018-04-02T15:25:45.541Z,95081.83
2018-04-02T15:28:11.537Z,95082.72
2018-04-02T15:30:37.614Z,95084.13
2018-04-02T15:33:03.588Z,95086.04
2018-04-02T15:35:29.589Z,95090.05
2018-04-02T15:37:55.582Z,95090.09
2018-04-02T15:40:21.663Z,95088.43
2018-04-02T15:42:47.698Z,95092.84
2018-04-02T15:45:13.699Z,95099.98
2018-04-02T15:47:39.935Z,95098.64
2018-04-02T15:50:05.910Z,95108.64
2018-04-02T15:52:32.834Z,95109.98
2018-04-02T15:54:58.784Z,95105.36
2018-04-02T15:57:24.776Z,95106.86
2018-04-02T15:59:50.835Z,95114.23
2018-04-02T16:02:17.042Z,95115.37
2018-04-02T16:04:43.146Z,95114.48
2018-04-02T16:07:14.591Z,95115.45
2018-04-02T16:09:40.634Z,95116.59
2018-04-02T16:12:06.788Z,95117.08
2018-04-02T16:14:32.790Z,95115.09
2018-04-02T16:16:58.852Z,95121.50
2018-04-02T16:19:24.816Z,95121.46
2018-04-02T16:21:50.912Z,95118.25
2018-04-02T16:24:17.193Z,95127.45
2018-04-02T16:26:43.270Z,95129.39
2018-04-02T16:29:09.446Z,95122.51
2018-04-02T16:31:35.466Z,95132.06
2018-04-02T16:34:01.481Z,95132.23
2018-04-02T16:36:27.732Z,95123.44
2018-04-02T16:38:53.710Z,95139.08
2018-04-02T16:41:20.556Z,95134.45
2018-04-02T16:43:46.515Z,95142.68
2018-04-02T16:46:12.495Z,95139.72
2018-04-02T16:48:38.506Z,95147.77
2018-04-02T16:51:04.526Z,95145.39
2018-04-02T16:53:30.487Z,95143.59
2018-04-02T16:55:56.499Z,95150.86
2018-04-02T16:58:22.487Z,95156.73
2018-04-02T17:00:48.479Z,95158.34
2018-04-02T17:03:14.474Z,95156.33
2018-04-02T17:05:40.457Z,95159.41
2018-04-02T17:08:06.432Z,95156.41
2018-04-02T17:10:32.416Z,95158.75
2018-04-02T17:12:58.434Z,95161.22
2018-04-02T17:15:24.418Z,95162.55
2018-04-02T17:17:50.442Z,95167.25
2018-04-02T17:20:16.438Z,95172.39
2018-04-02T17:22:42.426Z,95177.50
2018-04-02T17:25:08.410Z,95178.47
2018-04-02T17:27:34.429Z,95185.92
2018-04-02T17:30:00.438Z,95189.84
2018-04-02T17:32:26.394Z,95194.95
2018-04-02T17:34:52.372Z,95201.19
2018-04-02T17:37:18.417Z,95200.27
2018-04-02T17:39:44.434Z,95209.17
2018-04-02T17:42:10.411Z,95210.09
2018-04-02T17:44:36.368Z,95213.06
2018-04-02T17:47:02.380Z,95226.79
2018-04-02T17:49:28.387Z,95231.49
2018-04-02T17:51:54.399Z,95234.03
2018-04-02T17:54:20.345Z,95241.28
2018-04-02T17:56:46.369Z,95239.29
2018-04-02T17:59:12.329Z,95247.55
2018-04-02T18:01:38.350Z,95248.52
2018-04-02T18:04:04.348Z,95252.66
2018-04-02T18:06:30.361Z,95258.38
2018-04-02T18:08:56.337Z,95259.59
2018-04-02T18:11:22.337Z,95261.17
2018-04-02T18:13:48.392Z,95262.03
2018-04-02T18:16:14.392Z,95261.87
2018-04-02T18:18:40.399Z,95272.28
2018-04-02T18:21:06.424Z,95271.15
2018-04-02T18:23:32.410Z,95271.56
2018-04-02T18:25:58.449Z,95271.93
2018-04-02T18:28:24.457Z,95279.58
2018-04-02T18:30:50.411Z,95281.52
2018-04-02T18:33:16.463Z,95291.61
2018-04-02T18:35:42.441Z,95282.95
2018-04-02T18:38:08.468Z,95286.47
2018-04-02T18:40:34.415Z,95297.68
2018-04-02T18:43:00.416Z,95298.20
2018-04-02T18:45:26.530Z,95303.25
2018-04-02T18:47:52.573Z,95302.94
2018-04-02T18:50:18.577Z,95308.09
2018-04-02T18:52:44.658Z,95308.81
2018-04-02T18:55:10.672Z,95313.86
2018-04-02T18:57:37.285Z,95318.00
2018-04-02T19:00:04.162Z,95322.94
2018-04-02T19:02:30.112Z,95325.45
2018-04-02T19:04:56.109Z,95332.74
2018-04-02T19:07:22.192Z,95335.50
2018-04-02T19:09:48.207Z,95338.44
2018-04-02T19:12:14.767Z,95338.44
2018-04-02T19:14:40.771Z,95348.65
2018-04-02T19:17:07.281Z,95347.27
2018-04-02T19:19:33.820Z,95343.55
2018-04-02T19:21:59.825Z,95349.63
2018-04-02T19:24:25.864Z,95351.97
2018-04-02T19:26:51.892Z,95349.22
2018-04-02T19:29:17.990Z,95347.84
2018-04-02T19:31:44.085Z,95347.62
2018-04-02T19:34:18.132Z,95340.34
2018-04-02T19:36:44.109Z,95340.91
2018-04-02T19:39:10.101Z,95346.41
2018-04-02T19:41:36.111Z,95346.61
2018-04-02T19:44:02.138Z,95351.36
2018-04-02T19:46:29.464Z,95350.19
2018-04-02T19:48:55.653Z,95353.75
2018-04-02T19:51:22.123Z,95354.11
2018-04-02T19:53:49.330Z,95357.43
2018-04-02T19:56:17.457Z,95361.00
2018-04-02T19:58:49.531Z,95370.23
2018-04-02T20:01:15.586Z,95373.55
2018-04-02T20:03:41.602Z,95379.06
2018-04-02T20:06:07.712Z,95377.06
2018-04-02T20:08:33.690Z,95379.30
2018-04-02T20:10:59.675Z,95383.38
2018-04-02T20:13:25.690Z,95381.95
2018-04-02T20:15:51.713Z,95383.38
2018-04-02T20:18:17.666Z,95384.16
2018-04-02T20:20:43.681Z,95381.41
2018-04-02T20:23:09.806Z,95385.95
2018-04-02T20:25:35.797Z,95387.11
2018-04-02T20:28:01.763Z,95390.27
2018-04-02T20:30:27.759Z,95387.11
2018-04-02T20:32:53.778Z,95393.38
2018-04-02T20:35:19.805Z,95393.95
2018-04-02T20:37:45.822Z,95398.88
2018-04-02T20:40:11.763Z,95404.77
2018-04-02T20:42:37.755Z,95406.34
2018-04-02T20:45:03.730Z,95411.09
2018-04-02T20:47:29.719Z,95415.01
2018-04-02T20:49:55.732Z,95420.92
2018-04-02T20:52:21.724Z,95421.89
2018-04-02T20:54:47.780Z,95417.92
2018-04-02T20:57:13.797Z,95428.88
2018-04-02T20:59:39.780Z,95422.56
2018-04-02T21:02:05.798Z,95426.89
2018-04-02T21:04:31.751Z,95427.05
2018-04-02T21:06:57.736Z,95437.45
2018-04-02T21:09:23.713Z,95440.77
2018-04-02T21:11:49.726Z,95443.52
2018-04-02T21:14:15.678Z,95450.97
2018-04-02T21:16:41.669Z,95453.52
2018-04-02T21:19:07.702Z,95456.27
2018-04-02T21:21:33.719Z,95456.42
2018-04-02T21:23:59.693Z,95460.75
2018-04-02T21:26:25.648Z,95464.88
2018-04-02T21:28:51.670Z,95471.77
2018-04-02T21:31:17.618Z,95474.27
2018-04-02T21:33:43.596Z,95474.63
2018-04-02T21:36:09.578Z,95468.70
2018-04-02T21:38:35.544Z,95464.77
2018-04-02T21:41:01.526Z,95460.80
2018-04-02T21:43:27.512Z,95464.52
2018-04-02T21:45:53.502Z,95464.77
2018-04-02T21:48:19.477Z,95460.02
2018-04-02T21:50:45.465Z,95463.75
2018-04-02T21:53:11.502Z,95463.34
2018-04-02T21:55:37.462Z,95464.88
2018-04-02T21:58:03.423Z,95467.82
2018-04-02T22:00:29.413Z,95469.20
2018-04-02T22:02:55.391Z,95479.61
2018-04-02T22:05:21.410Z,95485.31
2018-04-02T22:07:47.344Z,95479.75
2018-04-02T22:10:13.360Z,95479.34
2018-04-02T22:12:39.301Z,95478.53
2018-04-02T22:15:05.326Z,95474.00
2018-04-02T22:17:31.334Z,95478.32
2018-04-02T22:19:57.329Z,95474.59
2018-04-02T22:22:23.382Z,95472.00
2018-04-02T22:24:49.362Z,95481.88
2018-04-02T22:27:15.313Z,95479.45
2018-04-02T22:29:41.316Z,95482.61
2018-04-02T22:32:07.334Z,95479.08
2018-04-02T22:34:33.353Z,95484.58
2018-04-02T22:36:59.412Z,95490.66
2018-04-02T22:39:25.420Z,95489.69
2018-04-02T22:41:51.508Z,95490.41
2018-04-02T22:44:17.483Z,95499.48
2018-04-02T22:46:43.534Z,95490.81
2018-04-02T22:49:09.540Z,95493.16
2018-04-02T22:51:35.554Z,95505.14
2018-04-02T22:54:01.579Z,95506.52
2018-04-02T22:56:27.584Z,95508.90
2018-04-02T22:58:53.606Z,95508.84
2018-04-02T23:01:19.647Z,95502.52
2018-04-02T23:03:45.666Z,95507.47
2018-04-02T23:06:11.653Z,95508.44
2018-04-02T23:08:37.647Z,95505.03
2018-04-02T23:11:03.667Z,95510.22
2018-04-02T23:13:29.684Z,95507.78
2018-04-02T23:15:55.660Z,95503.66
2018-04-02T23:18:21.676Z,95504.47
2018-04-02T23:20:47.696Z,95509.76
2018-04-02T23:23:13.676Z,95511.86
2018-04-02T23:25:39.657Z,95505.16
2018-04-02T23:28:05.661Z,95512.45
2018-04-02T23:30:31.615Z,95509.70
2018-04-02T23:32:57.638Z,95517.69
2018-04-02T23:35:23.586Z,95510.27
2018-04-02T23:37:49.567Z,95507.92
2018-04-02T23:40:15.582Z,95516.71
2018-04-02T23:42:41.556Z,95518.66
2018-04-02T23:45:07.540Z,95521.03
2018-04-02T23:47:33.569Z,95515.91
2018-04-02T23:49:59.509Z,95521.41
2018-04-02T23:52:25.561Z,95512.37
2018-04-02T23:54:51.542Z,95516.66
2018-04-02T23:57:17.496Z,95521.59
2018-04-02T23:59:43.508Z,95530.27
